sensor_id;sensor_type;location;lat;lon;timestamp;P1;durP1;ratioP1;P2;durP2;ratioP2
56435;SDS011;42335;44.872;20.658;2023-02-22T00:00:28;231.93;;;108.93;;
56435;SDS011;42335;44.872;20.658;2023-02-22T00:03:22;188.38;;;90.03;;
56435;SDS011;42335;44.872;20.658;2023-02-22T00:06:03;200.38;;;90.85;;
56435;SDS011;42335;44.872;20.658;2023-02-22T00:08:39;191.27;;;91.43;;
56435;SDS011;42335;44.872;20.658;2023-02-22T00:11:07;192.05;;;96.53;;
56435;SDS011;42335;44.872;20.658;2023-02-22T00:13:33;194.57;;;95.07;;
56435;SDS011;42335;44.872;20.658;2023-02-22T00:16:00;196.57;;;102.95;;
56435;SDS011;42335;44.872;20.658;2023-02-22T00:18:28;223.45;;;109.68;;
56435;SDS011;42335;44.872;20.658;2023-02-22T00:20:57;226.70;;;111.13;;
56435;SDS011;42335;44.872;20.658;2023-02-22T00:23:24;227.40;;;109.57;;
56435;SDS011;42335;44.872;20.658;2023-02-22T00:25:52;226.93;;;108.78;;
56435;SDS011;42335;44.872;20.658;2023-02-22T00:28:19;229.00;;;112.28;;
56435;SDS011;42335;44.872;20.658;2023-02-22T00:30:48;228.68;;;111.38;;
56435;SDS011;42335;44.872;20.658;2023-02-22T00:33:15;207.43;;;104.68;;
56435;SDS011;42335;44.872;20.658;2023-02-22T00:35:41;212.35;;;103.82;;
56435;SDS011;42335;44.872;20.658;2023-02-22T00:38:12;209.65;;;106.00;;
56435;SDS011;42335;44.872;20.658;2023-02-22T00:40:39;211.82;;;104.68;;
56435;SDS011;42335;44.872;20.658;2023-02-22T00:43:05;208.70;;;105.78;;
56435;SDS011;42335;44.872;20.658;2023-02-22T00:45:32;193.90;;;97.18;;
56435;SDS011;42335;44.872;20.658;2023-02-22T00:47:59;206.77;;;99.18;;
56435;SDS011;42335;44.872;20.658;2023-02-22T00:50:27;202.05;;;98.60;;
56435;SDS011;42335;44.872;20.658;2023-02-22T00:52:55;166.70;;;79.38;;
56435;SDS011;42335;44.872;20.658;2023-02-22T00:55:24;158.23;;;77.85;;
56435;SDS011;42335;44.872;20.658;2023-02-22T00:57:52;160.38;;;81.90;;
56435;SDS011;42335;44.872;20.658;2023-02-22T01:00:23;148.48;;;77.82;;
56435;SDS011;42335;44.872;20.658;2023-02-22T01:02:54;267.27;;;121.18;;
56435;SDS011;42335;44.872;20.658;2023-02-22T01:05:23;251.35;;;116.18;;
56435;SDS011;42335;44.872;20.658;2023-02-22T01:07:51;239.98;;;109.82;;
56435;SDS011;42335;44.872;20.658;2023-02-22T01:10:18;264.00;;;112.80;;
56435;SDS011;42335;44.872;20.658;2023-02-22T01:12:45;234.57;;;114.10;;
56435;SDS011;42335;44.872;20.658;2023-02-22T01:15:13;239.02;;;108.07;;
56435;SDS011;42335;44.872;20.658;2023-02-22T01:17:39;229.68;;;110.00;;
56435;SDS011;42335;44.872;20.658;2023-02-22T01:20:08;237.18;;;108.50;;
56435;SDS011;42335;44.872;20.658;2023-02-22T01:22:37;236.88;;;109.95;;
56435;SDS011;42335;44.872;20.658;2023-02-22T01:25:04;229.50;;;110.00;;
56435;SDS011;42335;44.872;20.658;2023-02-22T01:27:31;222.10;;;109.28;;
56435;SDS011;42335;44.872;20.658;2023-02-22T01:29:58;228.52;;;109.07;;
56435;SDS011;42335;44.872;20.658;2023-02-22T01:32:24;209.18;;;102.20;;
56435;SDS011;42335;44.872;20.658;2023-02-22T01:34:51;194.70;;;96.60;;
56435;SDS011;42335;44.872;20.658;2023-02-22T01:37:17;195.38;;;93.35;;
56435;SDS011;42335;44.872;20.658;2023-02-22T01:39:43;191.50;;;93.40;;
56435;SDS011;42335;44.872;20.658;2023-02-22T01:42:09;176.35;;;86.55;;
56435;SDS011;42335;44.872;20.658;2023-02-22T01:44:36;178.02;;;93.25;;
56435;SDS011;42335;44.872;20.658;2023-02-22T01:47:05;183.63;;;92.55;;
56435;SDS011;42335;44.872;20.658;2023-02-22T01:52:13;174.02;;;87.35;;
56435;SDS011;42335;44.872;20.658;2023-02-22T01:54:49;190.23;;;98.30;;
56435;SDS011;42335;44.872;20.658;2023-02-22T01:57:27;213.30;;;100.90;;
56435;SDS011;42335;44.872;20.658;2023-02-22T01:59:57;181.18;;;87.80;;
56435;SDS011;42335;44.872;20.658;2023-02-22T02:02:25;172.95;;;82.38;;
56435;SDS011;42335;44.872;20.658;2023-02-22T02:04:52;178.27;;;84.20;;
56435;SDS011;42335;44.872;20.658;2023-02-22T02:07:20;153.05;;;74.28;;
56435;SDS011;42335;44.872;20.658;2023-02-22T02:12:26;116.85;;;59.60;;
56435;SDS011;42335;44.872;20.658;2023-02-22T02:17:56;126.78;;;60.90;;
56435;SDS011;42335;44.872;20.658;2023-02-22T02:39:49;107.80;;;53.85;;
56435;SDS011;42335;44.872;20.658;2023-02-22T02:42:20;104.43;;;52.55;;
56435;SDS011;42335;44.872;20.658;2023-02-22T02:44:58;105.43;;;53.35;;
56435;SDS011;42335;44.872;20.658;2023-02-22T02:47:29;103.68;;;48.58;;
56435;SDS011;42335;44.872;20.658;2023-02-22T02:50:13;97.55;;;45.60;;
56435;SDS011;42335;44.872;20.658;2023-02-22T02:52:45;104.13;;;50.72;;
56435;SDS011;42335;44.872;20.658;2023-02-22T02:55:13;101.47;;;49.42;;
56435;SDS011;42335;44.872;20.658;2023-02-22T02:57:39;95.60;;;47.85;;
56435;SDS011;42335;44.872;20.658;2023-02-22T03:00:05;89.53;;;43.58;;
56435;SDS011;42335;44.872;20.658;2023-02-22T03:08:07;88.05;;;42.15;;
56435;SDS011;42335;44.872;20.658;2023-02-22T03:16:50;84.35;;;42.90;;
56435;SDS011;42335;44.872;20.658;2023-02-22T03:30:17;86.47;;;42.53;;
56435;SDS011;42335;44.872;20.658;2023-02-22T03:32:48;82.40;;;41.60;;
56435;SDS011;42335;44.872;20.658;2023-02-22T03:35:19;86.57;;;43.08;;
56435;SDS011;42335;44.872;20.658;2023-02-22T03:37:52;79.55;;;45.97;;
56435;SDS011;42335;44.872;20.658;2023-02-22T03:40:22;80.22;;;45.10;;
56435;SDS011;42335;44.872;20.658;2023-02-22T03:42:57;88.00;;;46.83;;
56435;SDS011;42335;44.872;20.658;2023-02-22T03:45:27;86.30;;;45.97;;
56435;SDS011;42335;44.872;20.658;2023-02-22T03:48:05;92.10;;;46.60;;
56435;SDS011;42335;44.872;20.658;2023-02-22T03:50:47;89.88;;;44.78;;
56435;SDS011;42335;44.872;20.658;2023-02-22T03:53:14;81.53;;;40.60;;
56435;SDS011;42335;44.872;20.658;2023-02-22T03:55:42;72.30;;;39.72;;
56435;SDS011;42335;44.872;20.658;2023-02-22T03:58:09;81.32;;;42.72;;
56435;SDS011;42335;44.872;20.658;2023-02-22T04:00:37;78.70;;;39.83;;
56435;SDS011;42335;44.872;20.658;2023-02-22T04:03:03;72.20;;;39.28;;
56435;SDS011;42335;44.872;20.658;2023-02-22T04:05:29;84.50;;;43.08;;
56435;SDS011;42335;44.872;20.658;2023-02-22T04:07:56;70.68;;;40.15;;
56435;SDS011;42335;44.872;20.658;2023-02-22T04:10:23;66.15;;;38.53;;
56435;SDS011;42335;44.872;20.658;2023-02-22T04:12:49;79.38;;;42.20;;
56435;SDS011;42335;44.872;20.658;2023-02-22T04:15:16;70.47;;;38.05;;
56435;SDS011;42335;44.872;20.658;2023-02-22T04:17:44;74.00;;;39.67;;
56435;SDS011;42335;44.872;20.658;2023-02-22T04:20:09;66.13;;;35.97;;
56435;SDS011;42335;44.872;20.658;2023-02-22T04:22:37;66.50;;;38.53;;
56435;SDS011;42335;44.872;20.658;2023-02-22T04:25:05;64.85;;;34.78;;
56435;SDS011;42335;44.872;20.658;2023-02-22T04:27:31;63.25;;;36.38;;
56435;SDS011;42335;44.872;20.658;2023-02-22T04:29:58;67.47;;;35.45;;
56435;SDS011;42335;44.872;20.658;2023-02-22T04:32:23;66.38;;;36.20;;
56435;SDS011;42335;44.872;20.658;2023-02-22T04:34:49;58.95;;;33.70;;
56435;SDS011;42335;44.872;20.658;2023-02-22T04:37:15;66.15;;;35.20;;
56435;SDS011;42335;44.872;20.658;2023-02-22T04:39:42;65.72;;;34.92;;
56435;SDS011;42335;44.872;20.658;2023-02-22T04:42:08;52.42;;;32.33;;
56435;SDS011;42335;44.872;20.658;2023-02-22T04:44:35;57.97;;;32.53;;
56435;SDS011;42335;44.872;20.658;2023-02-22T04:47:01;58.40;;;31.13;;
56435;SDS011;42335;44.872;20.658;2023-02-22T04:49:26;53.25;;;30.80;;
56435;SDS011;42335;44.872;20.658;2023-02-22T04:51:52;52.42;;;31.08;;
56435;SDS011;42335;44.872;20.658;2023-02-22T04:54:18;60.70;;;32.67;;
56435;SDS011;42335;44.872;20.658;2023-02-22T04:56:44;61.47;;;32.28;;
56435;SDS011;42335;44.872;20.658;2023-02-22T04:59:10;52.10;;;31.92;;
56435;SDS011;42335;44.872;20.658;2023-02-22T05:01:36;57.95;;;33.47;;
56435;SDS011;42335;44.872;20.658;2023-02-22T05:04:02;53.40;;;31.80;;
56435;SDS011;42335;44.872;20.658;2023-02-22T05:06:32;69.03;;;35.65;;
56435;SDS011;42335;44.872;20.658;2023-02-22T05:08:59;194.60;;;116.70;;
56435;SDS011;42335;44.872;20.658;2023-02-22T05:11:25;72.57;;;41.78;;
56435;SDS011;42335;44.872;20.658;2023-02-22T05:13:50;67.65;;;37.53;;
56435;SDS011;42335;44.872;20.658;2023-02-22T05:16:16;96.32;;;61.03;;
56435;SDS011;42335;44.872;20.658;2023-02-22T05:18:42;69.47;;;42.00;;
56435;SDS011;42335;44.872;20.658;2023-02-22T05:21:07;64.72;;;37.10;;
56435;SDS011;42335;44.872;20.658;2023-02-22T05:23:33;64.10;;;35.58;;
56435;SDS011;42335;44.872;20.658;2023-02-22T05:25:59;61.22;;;38.95;;
56435;SDS011;42335;44.872;20.658;2023-02-22T05:28:25;64.75;;;36.42;;
56435;SDS011;42335;44.872;20.658;2023-02-22T05:30:51;64.35;;;35.58;;
56435;SDS011;42335;44.872;20.658;2023-02-22T05:33:17;63.75;;;37.83;;
56435;SDS011;42335;44.872;20.658;2023-02-22T05:35:43;69.82;;;34.65;;
56435;SDS011;42335;44.872;20.658;2023-02-22T05:38:09;71.18;;;36.08;;
56435;SDS011;42335;44.872;20.658;2023-02-22T05:40:39;63.70;;;33.97;;
56435;SDS011;42335;44.872;20.658;2023-02-22T05:43:07;67.70;;;34.85;;
56435;SDS011;42335;44.872;20.658;2023-02-22T05:45:33;60.72;;;32.60;;
56435;SDS011;42335;44.872;20.658;2023-02-22T05:48:00;61.63;;;34.20;;
56435;SDS011;42335;44.872;20.658;2023-02-22T05:50:26;73.43;;;36.10;;
56435;SDS011;42335;44.872;20.658;2023-02-22T05:52:53;64.30;;;37.67;;
56435;SDS011;42335;44.872;20.658;2023-02-22T05:55:20;58.75;;;35.35;;
56435;SDS011;42335;44.872;20.658;2023-02-22T05:57:47;67.28;;;36.53;;
56435;SDS011;42335;44.872;20.658;2023-02-22T06:00:18;74.75;;;36.47;;
56435;SDS011;42335;44.872;20.658;2023-02-22T06:02:52;71.93;;;37.05;;
56435;SDS011;42335;44.872;20.658;2023-02-22T06:05:18;89.25;;;48.08;;
56435;SDS011;42335;44.872;20.658;2023-02-22T06:07:44;437.73;;;319.65;;
56435;SDS011;42335;44.872;20.658;2023-02-22T06:10:10;64.13;;;37.47;;
56435;SDS011;42335;44.872;20.658;2023-02-22T06:12:37;57.97;;;35.25;;
56435;SDS011;42335;44.872;20.658;2023-02-22T06:15:03;62.53;;;35.50;;
56435;SDS011;42335;44.872;20.658;2023-02-22T06:17:28;61.65;;;35.63;;
56435;SDS011;42335;44.872;20.658;2023-02-22T06:19:54;61.85;;;33.53;;
56435;SDS011;42335;44.872;20.658;2023-02-22T06:22:21;61.35;;;37.80;;
56435;SDS011;42335;44.872;20.658;2023-02-22T06:24:46;68.07;;;38.03;;
56435;SDS011;42335;44.872;20.658;2023-02-22T06:27:12;84.97;;;47.53;;
56435;SDS011;42335;44.872;20.658;2023-02-22T06:29:38;74.80;;;42.20;;
56435;SDS011;42335;44.872;20.658;2023-02-22T06:32:08;66.70;;;38.10;;
56435;SDS011;42335;44.872;20.658;2023-02-22T06:34:34;147.63;;;88.10;;
56435;SDS011;42335;44.872;20.658;2023-02-22T06:36:59;88.85;;;52.50;;
56435;SDS011;42335;44.872;20.658;2023-02-22T06:39:25;95.72;;;52.28;;
56435;SDS011;42335;44.872;20.658;2023-02-22T06:41:51;92.70;;;53.63;;
56435;SDS011;42335;44.872;20.658;2023-02-22T06:44:19;79.80;;;47.10;;
56435;SDS011;42335;44.872;20.658;2023-02-22T06:46:47;75.18;;;41.97;;
56435;SDS011;42335;44.872;20.658;2023-02-22T06:49:17;76.47;;;42.58;;
56435;SDS011;42335;44.872;20.658;2023-02-22T06:51:44;73.88;;;41.70;;
56435;SDS011;42335;44.872;20.658;2023-02-22T06:54:10;69.00;;;40.67;;
56435;SDS011;42335;44.872;20.658;2023-02-22T06:56:36;72.70;;;43.33;;
56435;SDS011;42335;44.872;20.658;2023-02-22T06:59:02;84.88;;;45.15;;
56435;SDS011;42335;44.872;20.658;2023-02-22T07:01:27;81.20;;;43.17;;
56435;SDS011;42335;44.872;20.658;2023-02-22T07:03:53;87.68;;;44.25;;
56435;SDS011;42335;44.872;20.658;2023-02-22T07:06:19;87.05;;;48.65;;
56435;SDS011;42335;44.872;20.658;2023-02-22T07:08:45;104.45;;;51.42;;
56435;SDS011;42335;44.872;20.658;2023-02-22T07:11:10;98.85;;;55.83;;
56435;SDS011;42335;44.872;20.658;2023-02-22T07:13:36;113.47;;;65.07;;
56435;SDS011;42335;44.872;20.658;2023-02-22T07:16:02;118.28;;;63.63;;
56435;SDS011;42335;44.872;20.658;2023-02-22T07:18:27;131.32;;;76.68;;
56435;SDS011;42335;44.872;20.658;2023-02-22T07:20:53;135.27;;;75.68;;
56435;SDS011;42335;44.872;20.658;2023-02-22T07:23:19;126.10;;;73.20;;
56435;SDS011;42335;44.872;20.658;2023-02-22T07:25:47;117.82;;;65.95;;
56435;SDS011;42335;44.872;20.658;2023-02-22T07:28:13;124.07;;;72.50;;
56435;SDS011;42335;44.872;20.658;2023-02-22T07:30:39;119.80;;;66.43;;
56435;SDS011;42335;44.872;20.658;2023-02-22T07:33:06;107.43;;;64.30;;
56435;SDS011;42335;44.872;20.658;2023-02-22T07:35:36;121.05;;;73.72;;
56435;SDS011;42335;44.872;20.658;2023-02-22T07:38:06;112.05;;;71.65;;
56435;SDS011;42335;44.872;20.658;2023-02-22T07:40:32;111.53;;;62.60;;
56435;SDS011;42335;44.872;20.658;2023-02-22T07:43:00;94.65;;;58.03;;
56435;SDS011;42335;44.872;20.658;2023-02-22T07:45:34;106.45;;;55.22;;
56435;SDS011;42335;44.872;20.658;2023-02-22T07:48:00;86.13;;;59.40;;
56435;SDS011;42335;44.872;20.658;2023-02-22T07:50:28;97.95;;;61.58;;
56435;SDS011;42335;44.872;20.658;2023-02-22T07:52:55;92.63;;;60.50;;
56435;SDS011;42335;44.872;20.658;2023-02-22T07:55:26;96.72;;;60.90;;
56435;SDS011;42335;44.872;20.658;2023-02-22T07:57:54;89.13;;;53.28;;
56435;SDS011;42335;44.872;20.658;2023-02-22T08:00:26;77.18;;;49.30;;
56435;SDS011;42335;44.872;20.658;2023-02-22T08:02:53;75.18;;;47.00;;
56435;SDS011;42335;44.872;20.658;2023-02-22T08:05:20;73.22;;;44.00;;
56435;SDS011;42335;44.872;20.658;2023-02-22T08:07:48;64.93;;;46.03;;
56435;SDS011;42335;44.872;20.658;2023-02-22T08:10:15;65.15;;;45.22;;
56435;SDS011;42335;44.872;20.658;2023-02-22T08:12:43;70.97;;;44.42;;
56435;SDS011;42335;44.872;20.658;2023-02-22T08:15:14;59.05;;;40.28;;
56435;SDS011;42335;44.872;20.658;2023-02-22T08:17:50;44.35;;;31.40;;
56435;SDS011;42335;44.872;20.658;2023-02-22T08:20:17;43.15;;;27.20;;
56435;SDS011;42335;44.872;20.658;2023-02-22T08:22:43;40.55;;;26.83;;
56435;SDS011;42335;44.872;20.658;2023-02-22T08:25:09;34.97;;;23.38;;
56435;SDS011;42335;44.872;20.658;2023-02-22T08:27:36;32.03;;;20.75;;
56435;SDS011;42335;44.872;20.658;2023-02-22T08:30:03;32.75;;;20.67;;
56435;SDS011;42335;44.872;20.658;2023-02-22T08:32:30;29.52;;;21.00;;
56435;SDS011;42335;44.872;20.658;2023-02-22T08:34:57;24.48;;;18.35;;
56435;SDS011;42335;44.872;20.658;2023-02-22T08:37:23;29.13;;;19.75;;
56435;SDS011;42335;44.872;20.658;2023-02-22T08:39:48;27.20;;;18.08;;
56435;SDS011;42335;44.872;20.658;2023-02-22T08:42:14;23.85;;;18.83;;
56435;SDS011;42335;44.872;20.658;2023-02-22T08:44:40;25.40;;;18.15;;
56435;SDS011;42335;44.872;20.658;2023-02-22T08:47:06;27.38;;;18.25;;
56435;SDS011;42335;44.872;20.658;2023-02-22T08:49:32;30.63;;;19.65;;
56435;SDS011;42335;44.872;20.658;2023-02-22T08:51:58;28.40;;;19.63;;
56435;SDS011;42335;44.872;20.658;2023-02-22T08:54:23;40.08;;;24.80;;
56435;SDS011;42335;44.872;20.658;2023-02-22T08:56:49;32.90;;;22.85;;
56435;SDS011;42335;44.872;20.658;2023-02-22T08:59:15;33.60;;;22.60;;
56435;SDS011;42335;44.872;20.658;2023-02-22T09:01:41;35.03;;;24.05;;
56435;SDS011;42335;44.872;20.658;2023-02-22T09:04:07;37.22;;;25.17;;
56435;SDS011;42335;44.872;20.658;2023-02-22T09:06:33;40.45;;;24.48;;
56435;SDS011;42335;44.872;20.658;2023-02-22T09:08:59;36.55;;;24.73;;
56435;SDS011;42335;44.872;20.658;2023-02-22T09:11:25;40.22;;;26.08;;
56435;SDS011;42335;44.872;20.658;2023-02-22T09:13:51;38.83;;;25.80;;
56435;SDS011;42335;44.872;20.658;2023-02-22T09:16:17;34.22;;;24.33;;
56435;SDS011;42335;44.872;20.658;2023-02-22T09:18:43;38.58;;;22.52;;
56435;SDS011;42335;44.872;20.658;2023-02-22T09:21:10;32.72;;;20.85;;
56435;SDS011;42335;44.872;20.658;2023-02-22T09:23:36;35.80;;;24.90;;
56435;SDS011;42335;44.872;20.658;2023-02-22T09:26:02;43.10;;;26.98;;
56435;SDS011;42335;44.872;20.658;2023-02-22T09:28:28;36.20;;;23.50;;
56435;SDS011;42335;44.872;20.658;2023-02-22T09:30:54;33.33;;;23.52;;
56435;SDS011;42335;44.872;20.658;2023-02-22T09:33:20;39.88;;;23.33;;
56435;SDS011;42335;44.872;20.658;2023-02-22T09:35:46;41.35;;;25.17;;
56435;SDS011;42335;44.872;20.658;2023-02-22T09:38:22;34.08;;;22.35;;
56435;SDS011;42335;44.872;20.658;2023-02-22T09:40:53;37.55;;;21.58;;
56435;SDS011;42335;44.872;20.658;2023-02-22T09:57:13;34.45;;;17.05;;
56435;SDS011;42335;44.872;20.658;2023-02-22T09:59:46;28.13;;;18.25;;
56435;SDS011;42335;44.872;20.658;2023-02-22T10:02:39;27.63;;;16.33;;
56435;SDS011;42335;44.872;20.658;2023-02-22T10:05:16;27.27;;;15.75;;
56435;SDS011;42335;44.872;20.658;2023-02-22T10:07:50;26.42;;;17.92;;
56435;SDS011;42335;44.872;20.658;2023-02-22T10:10:22;26.65;;;16.75;;
56435;SDS011;42335;44.872;20.658;2023-02-22T10:28:57;17.50;;;11.40;;
56435;SDS011;42335;44.872;20.658;2023-02-22T10:31:33;15.30;;;12.77;;
56435;SDS011;42335;44.872;20.658;2023-02-22T10:34:08;22.15;;;13.68;;
56435;SDS011;42335;44.872;20.658;2023-02-22T10:36:38;18.10;;;11.98;;
56435;SDS011;42335;44.872;20.658;2023-02-22T10:39:51;16.25;;;12.27;;
56435;SDS011;42335;44.872;20.658;2023-02-22T10:42:24;19.55;;;12.75;;
56435;SDS011;42335;44.872;20.658;2023-02-22T10:44:52;16.48;;;12.93;;
56435;SDS011;42335;44.872;20.658;2023-02-22T10:47:19;17.00;;;12.30;;
56435;SDS011;42335;44.872;20.658;2023-02-22T10:49:46;16.52;;;11.80;;
56435;SDS011;42335;44.872;20.658;2023-02-22T10:52:29;18.90;;;13.85;;
56435;SDS011;42335;44.872;20.658;2023-02-22T10:54:58;18.52;;;11.98;;
56435;SDS011;42335;44.872;20.658;2023-02-22T10:57:29;20.70;;;10.90;;
56435;SDS011;42335;44.872;20.658;2023-02-22T10:59:58;15.00;;;10.90;;
56435;SDS011;42335;44.872;20.658;2023-02-22T11:02:55;13.82;;;10.82;;
56435;SDS011;42335;44.872;20.658;2023-02-22T11:07:52;18.42;;;10.57;;
56435;SDS011;42335;44.872;20.658;2023-02-22T11:10:39;16.55;;;10.80;;
56435;SDS011;42335;44.872;20.658;2023-02-22T11:15:42;18.17;;;10.55;;
56435;SDS011;42335;44.872;20.658;2023-02-22T11:18:30;15.35;;;10.52;;
56435;SDS011;42335;44.872;20.658;2023-02-22T11:20:59;18.65;;;11.15;;
56435;SDS011;42335;44.872;20.658;2023-02-22T11:23:30;13.10;;;9.75;;
56435;SDS011;42335;44.872;20.658;2023-02-22T11:25:59;17.45;;;10.63;;
56435;SDS011;42335;44.872;20.658;2023-02-22T11:28:31;15.70;;;10.02;;
56435;SDS011;42335;44.872;20.658;2023-02-22T11:31:08;13.38;;;9.25;;
56435;SDS011;42335;44.872;20.658;2023-02-22T11:33:36;13.32;;;10.77;;
56435;SDS011;42335;44.872;20.658;2023-02-22T11:36:03;14.10;;;9.80;;
56435;SDS011;42335;44.872;20.658;2023-02-22T11:38:35;13.98;;;8.32;;
56435;SDS011;42335;44.872;20.658;2023-02-22T11:41:19;10.23;;;8.27;;
56435;SDS011;42335;44.872;20.658;2023-02-22T11:43:50;11.18;;;7.18;;
56435;SDS011;42335;44.872;20.658;2023-02-22T11:46:21;11.02;;;8.35;;
56435;SDS011;42335;44.872;20.658;2023-02-22T11:54:21;17.85;;;7.28;;
56435;SDS011;42335;44.872;20.658;2023-02-22T12:08:29;13.68;;;7.85;;
56435;SDS011;42335;44.872;20.658;2023-02-22T12:14:10;11.20;;;8.55;;
56435;SDS011;42335;44.872;20.658;2023-02-22T12:19:41;18.02;;;9.50;;
56435;SDS011;42335;44.872;20.658;2023-02-22T12:24:41;16.60;;;8.05;;
56435;SDS011;42335;44.872;20.658;2023-02-22T12:27:32;14.90;;;6.90;;
56435;SDS011;42335;44.872;20.658;2023-02-22T12:30:17;16.35;;;9.05;;
56435;SDS011;42335;44.872;20.658;2023-02-22T12:32:49;11.25;;;7.90;;
56435;SDS011;42335;44.872;20.658;2023-02-22T12:35:26;9.82;;;8.10;;
56435;SDS011;42335;44.872;20.658;2023-02-22T12:38:00;12.57;;;9.90;;
56435;SDS011;42335;44.872;20.658;2023-02-22T12:46:02;11.13;;;8.20;;
56435;SDS011;42335;44.872;20.658;2023-02-22T12:54:26;12.10;;;8.88;;
56435;SDS011;42335;44.872;20.658;2023-02-22T12:57:14;14.10;;;8.60;;
56435;SDS011;42335;44.872;20.658;2023-02-22T13:04:42;15.27;;;7.93;;
56435;SDS011;42335;44.872;20.658;2023-02-22T13:07:17;14.13;;;8.25;;
56435;SDS011;42335;44.872;20.658;2023-02-22T13:15:17;10.63;;;7.78;;
56435;SDS011;42335;44.872;20.658;2023-02-22T13:20:52;12.07;;;7.80;;
56435;SDS011;42335;44.872;20.658;2023-02-22T13:26:18;14.80;;;8.30;;
56435;SDS011;42335;44.872;20.658;2023-02-22T13:29:03;12.88;;;8.70;;
56435;SDS011;42335;44.872;20.658;2023-02-22T13:31:39;12.52;;;8.07;;
56435;SDS011;42335;44.872;20.658;2023-02-22T13:34:11;15.88;;;8.32;;
56435;SDS011;42335;44.872;20.658;2023-02-22T13:41:48;13.63;;;7.13;;
56435;SDS011;42335;44.872;20.658;2023-02-22T13:44:27;17.27;;;7.72;;
56435;SDS011;42335;44.872;20.658;2023-02-22T13:52:53;13.43;;;8.30;;
56435;SDS011;42335;44.872;20.658;2023-02-22T13:55:21;16.15;;;8.35;;
56435;SDS011;42335;44.872;20.658;2023-02-22T13:57:54;17.63;;;7.20;;
56435;SDS011;42335;44.872;20.658;2023-02-22T14:03:01;13.00;;;7.75;;
56435;SDS011;42335;44.872;20.658;2023-02-22T14:05:34;10.77;;;6.45;;
56435;SDS011;42335;44.872;20.658;2023-02-22T14:08:00;10.82;;;6.65;;
56435;SDS011;42335;44.872;20.658;2023-02-22T14:10:43;13.30;;;6.53;;
56435;SDS011;42335;44.872;20.658;2023-02-22T14:13:11;11.57;;;6.88;;
56435;SDS011;42335;44.872;20.658;2023-02-22T14:18:22;9.98;;;5.93;;
56435;SDS011;42335;44.872;20.658;2023-02-22T14:21:22;16.77;;;8.18;;
56435;SDS011;42335;44.872;20.658;2023-02-22T14:23:49;22.55;;;12.32;;
56435;SDS011;42335;44.872;20.658;2023-02-22T14:26:29;26.20;;;12.57;;
56435;SDS011;42335;44.872;20.658;2023-02-22T14:31:33;11.02;;;7.95;;
56435;SDS011;42335;44.872;20.658;2023-02-22T14:34:09;14.27;;;7.50;;
56435;SDS011;42335;44.872;20.658;2023-02-22T14:36:39;13.27;;;7.13;;
56435;SDS011;42335;44.872;20.658;2023-02-22T14:39:30;14.82;;;6.57;;
56435;SDS011;42335;44.872;20.658;2023-02-22T14:42:22;9.35;;;6.55;;
56435;SDS011;42335;44.872;20.658;2023-02-22T14:50:27;9.77;;;6.30;;
56435;SDS011;42335;44.872;20.658;2023-02-22T14:53:00;9.15;;;6.63;;
56435;SDS011;42335;44.872;20.658;2023-02-22T14:55:31;14.10;;;7.60;;
56435;SDS011;42335;44.872;20.658;2023-02-22T14:58:04;13.40;;;8.20;;
56435;SDS011;42335;44.872;20.658;2023-02-22T15:00:52;14.82;;;10.20;;
56435;SDS011;42335;44.872;20.658;2023-02-22T15:05:46;15.32;;;7.95;;
56435;SDS011;42335;44.872;20.658;2023-02-22T15:08:16;14.45;;;5.55;;
56435;SDS011;42335;44.872;20.658;2023-02-22T15:10:51;11.77;;;6.25;;
56435;SDS011;42335;44.872;20.658;2023-02-22T15:13:25;13.60;;;5.75;;
56435;SDS011;42335;44.872;20.658;2023-02-22T15:15:55;12.40;;;7.38;;
56435;SDS011;42335;44.872;20.658;2023-02-22T15:18:26;10.07;;;6.50;;
56435;SDS011;42335;44.872;20.658;2023-02-22T15:21:04;12.63;;;6.93;;
56435;SDS011;42335;44.872;20.658;2023-02-22T15:26:24;11.63;;;6.90;;
56435;SDS011;42335;44.872;20.658;2023-02-22T15:28:55;22.15;;;9.35;;
56435;SDS011;42335;44.872;20.658;2023-02-22T15:33:48;13.27;;;8.93;;
56435;SDS011;42335;44.872;20.658;2023-02-22T15:36:17;22.58;;;9.20;;
56435;SDS011;42335;44.872;20.658;2023-02-22T15:38:51;20.83;;;11.25;;
56435;SDS011;42335;44.872;20.658;2023-02-22T15:41:24;22.00;;;13.98;;
56435;SDS011;42335;44.872;20.658;2023-02-22T15:44:14;29.33;;;14.73;;
56435;SDS011;42335;44.872;20.658;2023-02-22T15:46:40;33.58;;;17.00;;
56435;SDS011;42335;44.872;20.658;2023-02-22T15:51:34;36.08;;;18.05;;
56435;SDS011;42335;44.872;20.658;2023-02-22T15:54:03;29.60;;;16.52;;
56435;SDS011;42335;44.872;20.658;2023-02-22T15:56:40;31.67;;;18.48;;
56435;SDS011;42335;44.872;20.658;2023-02-22T15:59:19;58.17;;;36.95;;
56435;SDS011;42335;44.872;20.658;2023-02-22T16:01:48;153.15;;;112.03;;
56435;SDS011;42335;44.872;20.658;2023-02-22T16:04:18;44.78;;;23.65;;
56435;SDS011;42335;44.872;20.658;2023-02-22T16:06:46;44.40;;;24.30;;
56435;SDS011;42335;44.872;20.658;2023-02-22T16:09:14;40.22;;;22.13;;
56435;SDS011;42335;44.872;20.658;2023-02-22T16:11:46;42.40;;;23.60;;
56435;SDS011;42335;44.872;20.658;2023-02-22T16:14:32;42.22;;;23.80;;
56435;SDS011;42335;44.872;20.658;2023-02-22T16:22:43;39.67;;;21.33;;
56435;SDS011;42335;44.872;20.658;2023-02-22T16:27:56;49.42;;;26.17;;
56435;SDS011;42335;44.872;20.658;2023-02-22T16:30:33;56.15;;;25.58;;
56435;SDS011;42335;44.872;20.658;2023-02-22T16:33:02;49.47;;;26.40;;
56435;SDS011;42335;44.872;20.658;2023-02-22T16:38:00;43.63;;;25.25;;
56435;SDS011;42335;44.872;20.658;2023-02-22T16:40:32;44.45;;;22.98;;
56435;SDS011;42335;44.872;20.658;2023-02-22T16:43:05;47.13;;;20.98;;
56435;SDS011;42335;44.872;20.658;2023-02-22T16:45:34;36.20;;;21.23;;
56435;SDS011;42335;44.872;20.658;2023-02-22T16:48:00;46.35;;;21.38;;
56435;SDS011;42335;44.872;20.658;2023-02-22T16:50:35;52.35;;;27.08;;
56435;SDS011;42335;44.872;20.658;2023-02-22T16:53:04;57.22;;;33.15;;
56435;SDS011;42335;44.872;20.658;2023-02-22T16:55:29;50.85;;;32.20;;
56435;SDS011;42335;44.872;20.658;2023-02-22T16:57:55;53.33;;;33.95;;
56435;SDS011;42335;44.872;20.658;2023-02-22T17:00:25;108.63;;;62.42;;
56435;SDS011;42335;44.872;20.658;2023-02-22T17:03:01;126.55;;;62.85;;
56435;SDS011;42335;44.872;20.658;2023-02-22T17:05:28;142.85;;;62.95;;
56435;SDS011;42335;44.872;20.658;2023-02-22T17:07:58;163.68;;;82.22;;
56435;SDS011;42335;44.872;20.658;2023-02-22T17:10:24;169.63;;;82.53;;
56435;SDS011;42335;44.872;20.658;2023-02-22T17:12:50;137.95;;;68.70;;
56435;SDS011;42335;44.872;20.658;2023-02-22T17:15:21;102.40;;;54.45;;
56435;SDS011;42335;44.872;20.658;2023-02-22T17:17:53;121.88;;;50.90;;
56435;SDS011;42335;44.872;20.658;2023-02-22T17:20:20;84.95;;;45.92;;
56435;SDS011;42335;44.872;20.658;2023-02-22T17:25:27;68.45;;;38.72;;
56435;SDS011;42335;44.872;20.658;2023-02-22T17:27:58;74.25;;;40.42;;